Time;durP1;ratioP1;P1;durP2;ratioP2;P2;SDS_P1;SDS_P2;PMS_P1;PMS_P2;Temp;Humidity;BMP_temperature;BMP_pressure;BME280_temperature;BME280_humidity;BME280_pressure;Samples;Min_cycle;Max_cycle;Signal;HPM_P1;HPM_P2
2022/02/24 00:00:55;;;;;;;;;;;;;;;2.87;61.23;98482.00;5085652;28;20659;-90
2022/02/24 00:03:23;;;;;;;;;;;;;;;2.70;62.15;98481.22;5079074;28;20374;-89
2022/02/24 00:05:56;;;;;;;;;;;;;;;2.83;61.78;98462.94;5085454;28;19934;-90
2022/02/24 00:08:24;;;;;;;;;;;;;;;2.78;61.25;98460.16;5087124;28;19927;-91
2022/02/24 00:10:51;;;;;;;;;;;;;;;2.79;61.23;98475.19;5089357;28;19924;-92
2022/02/24 00:13:19;;;;;;;;;;;;;;;2.76;61.39;98485.59;5089237;28;19927;-90
2022/02/24 00:15:47;;;;;;;;;;;;;;;2.70;61.18;98495.44;5084919;28;20335;-91
2022/02/24 00:18:40;;;;;;;;;;;;;;;2.75;61.19;98482.13;5086868;28;20125;-93
2022/02/24 00:21:12;;;;;;;;;;;;;;;2.58;62.05;98492.88;5080274;28;19920;-89
2022/02/24 00:23:41;;;;;;;;;;;;;;;2.66;61.48;98488.13;5088047;28;19924;-93
2022/02/24 00:26:08;;;;;;;;;;;;;;;2.68;61.43;98472.63;5081480;28;19927;-93
2022/02/24 00:28:37;;;;;;;;;;;;;;;2.78;61.22;98472.78;5079192;28;19938;-92
2022/02/24 00:31:08;;;;;;;;;;;;;;;2.60;61.78;98471.16;5080095;28;20477;-90
2022/02/24 00:33:38;;;;;;;;;;;;;;;2.70;61.75;98462.44;5083820;28;20291;-91
2022/02/24 00:36:09;;;;;;;;;;;;;;;2.78;61.10;98464.72;5082809;28;20401;-92
2022/02/24 00:38:38;;;;;;;;;;;;;;;2.74;61.31;98463.59;5082955;28;19927;-91
2022/02/24 00:41:05;;;;;;;;;;;;;;;2.69;61.52;98463.50;5081117;28;19963;-90
2022/02/24 00:43:35;;;;;;;;;;;;;;;2.61;61.99;98460.19;5078254;28;20419;-88
2022/02/24 00:46:05;;;;;;;;;;;;;;;2.73;61.68;98453.91;5083272;28;20428;-91
2022/02/24 00:48:33;;;;;;;;;;;;;;;2.76;61.31;98443.47;5079015;28;19924;-92
2022/02/24 00:51:01;;;;;;;;;;;;;;;2.76;61.41;98445.34;5083871;28;19928;-90
2022/02/24 00:53:32;;;;;;;;;;;;;;;2.15;63.27;98434.56;5081224;28;19928;-92
2022/02/24 00:56:01;;;;;;;;;;;;;;;2.31;62.85;98439.09;5082162;28;19920;-91
2022/02/24 00:58:32;;;;;;;;;;;;;;;2.29;62.89;98426.97;5082516;28;20048;-91
2022/02/24 01:01:00;;;;;;;;;;;;;;;2.36;62.91;98427.63;5081610;28;19947;-91
2022/02/24 01:03:29;;;;;;;;;;;;;;;2.42;62.73;98423.97;5083231;28;19967;-91
2022/02/24 01:05:57;;;;;;;;;;;;;;;2.43;62.60;98420.22;5081027;28;19931;-91
2022/02/24 01:08:25;;;;;;;;;;;;;;;2.27;63.15;98418.38;5081024;28;20052;-89
2022/02/24 01:10:53;;;;;;;;;;;;;;;2.34;63.49;98411.81;5084384;28;19965;-91
2022/02/24 01:13:22;;;;;;;;;;;;;;;2.31;63.24;98403.44;5080142;28;19932;-90
2022/02/24 01:21:35;;;;;;;;;;;;;;;2.65;62.20;98395.31;5084932;28;20436;-91
2022/02/24 01:24:04;;;;;;;;;;;;;;;2.73;61.62;98392.22;5079707;28;19924;-92
2022/02/24 01:26:32;;;;;;;;;;;;;;;2.67;61.96;98387.84;5083571;28;19924;-92
2022/02/24 01:29:01;;;;;;;;;;;;;;;2.43;62.85;98388.03;5083053;28;19964;-92
2022/02/24 01:31:29;;;;;;;;;;;;;;;2.60;62.30;98399.53;5082827;28;19959;-90
2022/02/24 01:33:57;;;;;;;;;;;;;;;2.61;62.08;98390.47;5083465;28;20436;-92
2022/02/24 01:36:25;;;;;;;;;;;;;;;2.78;61.47;98394.97;5080819;28;19981;-90
2022/02/24 01:38:52;;;;;;;;;;;;;;;2.92;60.88;98390.81;5083518;28;20367;-90
2022/02/24 01:41:20;;;;;;;;;;;;;;;2.96;60.78;98380.41;5087144;28;19966;-92
2022/02/24 01:43:48;;;;;;;;;;;;;;;2.97;60.84;98380.16;5081297;28;19920;-92
2022/02/24 01:46:18;;;;;;;;;;;;;;;2.87;61.22;98380.84;5086301;28;19942;-88
2022/02/24 01:48:46;;;;;;;;;;;;;;;2.87;61.19;98374.66;5088617;28;19928;-90
2022/02/24 01:51:14;;;;;;;;;;;;;;;2.91;61.19;98369.63;5085239;28;19950;-89
2022/02/24 01:53:42;;;;;;;;;;;;;;;2.77;61.97;98367.31;5084857;28;19923;-92
2022/02/24 01:56:12;;;;;;;;;;;;;;;2.73;62.09;98354.66;5087420;28;19931;-89
2022/02/24 01:58:40;;;;;;;;;;;;;;;2.81;61.75;98348.84;5086236;28;19920;-91
2022/02/24 02:01:08;;;;;;;;;;;;;;;3.00;60.77;98347.47;5085599;28;19981;-92
2022/02/24 02:03:38;;;;;;;;;;;;;;;2.74;61.80;98340.16;5087090;28;20278;-92
2022/02/24 02:06:06;;;;;;;;;;;;;;;2.89;61.55;98332.31;5081798;28;19930;-92
2022/02/24 02:08:34;;;;;;;;;;;;;;;3.01;61.02;98324.91;5087628;28;19928;-92
2022/02/24 02:11:02;;;;;;;;;;;;;;;2.95;61.12;98328.63;5089521;28;19974;-91
2022/02/24 02:13:34;;;;;;;;;;;;;;;2.69;62.09;98332.06;5083389;28;19924;-93
2022/02/24 02:16:02;;;;;;;;;;;;;;;2.69;62.22;98326.69;5085685;28;20340;-92
2022/02/24 02:18:33;;;;;;;;;;;;;;;2.45;63.06;98321.59;5083349;28;20346;-91
2022/02/24 02:21:03;;;;;;;;;;;;;;;2.63;62.49;98317.78;5081892;28;19927;-91
2022/02/24 02:23:37;;;;;;;;;;;;;;;2.75;61.99;98314.97;5086307;28;20019;-92
2022/02/24 02:26:07;;;;;;;;;;;;;;;2.60;62.54;98319.06;5088000;28;20010;-91
2022/02/24 02:28:38;;;;;;;;;;;;;;;2.76;61.90;98317.38;5086997;28;19959;-92
2022/02/24 02:31:05;;;;;;;;;;;;;;;2.88;61.36;98304.66;5081470;28;19920;-90
2022/02/24 02:33:33;;;;;;;;;;;;;;;2.96;61.29;98305.25;5085744;28;19963;-90
2022/02/24 02:36:05;;;;;;;;;;;;;;;2.89;61.00;98300.09;5084207;28;19942;-92
2022/02/24 02:38:33;;;;;;;;;;;;;;;3.00;61.24;98293.78;5088798;28;19924;-93
2022/02/24 02:41:01;;;;;;;;;;;;;;;2.97;61.24;98290.78;5086027;28;20382;-89
2022/02/24 02:43:31;;;;;;;;;;;;;;;2.75;61.52;98294.31;5086017;28;19920;-93
2022/02/24 02:46:00;;;;;;;;;;;;;;;2.76;62.03;98287.06;5080997;28;19927;-91
2022/02/24 02:48:33;;;;;;;;;;;;;;;2.59;62.54;98290.63;5085077;28;20386;-91
2022/02/24 02:51:05;;;;;;;;;;;;;;;2.52;63.35;98289.22;5087887;28;19939;-91
2022/02/24 02:53:33;;;;;;;;;;;;;;;2.43;63.56;98294.19;5084571;28;19928;-90
2022/02/24 02:56:06;;;;;;;;;;;;;;;2.56;62.97;98280.41;5085972;28;19919;-91
2022/02/24 02:58:35;;;;;;;;;;;;;;;2.58;63.03;98272.13;5084235;28;19920;-90
2022/02/24 03:01:05;;;;;;;;;;;;;;;2.88;61.77;98255.56;5084402;28;19969;-90
2022/02/24 03:03:34;;;;;;;;;;;;;;;2.92;61.36;98251.28;5085447;28;19924;-92
2022/02/24 03:06:09;;;;;;;;;;;;;;;2.95;61.43;98250.78;5090111;28;19920;-91
2022/02/24 03:08:37;;;;;;;;;;;;;;;2.61;62.48;98250.97;5086584;28;20313;-91
2022/02/24 03:11:08;;;;;;;;;;;;;;;2.70;62.25;98247.81;5085798;28;19977;-91
2022/02/24 03:13:36;;;;;;;;;;;;;;;2.92;61.53;98240.53;5087057;28;20021;-91
2022/02/24 03:16:07;;;;;;;;;;;;;;;2.93;61.29;98236.81;5083879;28;19933;-91
2022/02/24 03:18:35;;;;;;;;;;;;;;;2.77;62.23;98235.00;5085702;28;19935;-91
2022/02/24 03:21:07;;;;;;;;;;;;;;;2.78;61.96;98231.28;5083114;28;19932;-92
2022/02/24 03:23:37;;;;;;;;;;;;;;;2.72;62.48;98218.91;5086343;28;19924;-92
2022/02/24 03:26:05;;;;;;;;;;;;;;;2.82;61.90;98217.13;5100529;28;19927;-91
2022/02/24 03:28:33;;;;;;;;;;;;;;;2.80;62.34;98211.19;5087450;28;19974;-91
2022/02/24 03:31:01;;;;;;;;;;;;;;;2.85;62.04;98210.44;5085304;28;19959;-91
2022/02/24 03:33:31;;;;;;;;;;;;;;;2.78;62.07;98207.94;5085380;28;19928;-92
2022/02/24 03:35:58;;;;;;;;;;;;;;;2.83;62.14;98205.31;5084549;28;20263;-90
2022/02/24 03:38:28;;;;;;;;;;;;;;;2.76;62.50;98202.00;5100976;28;19921;-91
2022/02/24 03:40:57;;;;;;;;;;;;;;;2.84;61.92;98200.75;5079995;28;19928;-91
2022/02/24 03:43:25;;;;;;;;;;;;;;;2.86;62.40;98199.44;5095214;28;19923;-93
2022/02/24 03:45:54;;;;;;;;;;;;;;;2.73;62.84;98194.50;5079020;28;19920;-91
2022/02/24 03:51:19;;;;;;;;;;;;;;;3.00;61.98;98194.47;5080407;28;19920;-91
2022/02/24 03:53:49;;;;;;;;;;;;;;;3.19;61.25;98191.38;5078459;28;20726;-90
2022/02/24 03:56:17;;;;;;;;;;;;;;;3.08;61.92;98185.94;5098887;28;19967;-90
2022/02/24 03:58:45;;;;;;;;;;;;;;;3.27;61.36;98188.25;5084098;28;19928;-91
2022/02/24 04:01:14;;;;;;;;;;;;;;;3.06;62.17;98188.06;5081149;28;19919;-91
2022/02/24 04:03:42;;;;;;;;;;;;;;;2.93;62.85;98188.50;5079473;28;20003;-89
2022/02/24 04:06:11;;;;;;;;;;;;;;;3.24;61.68;98178.00;5096456;28;19959;-89
2022/02/24 04:08:42;;;;;;;;;;;;;;;3.34;60.97;98172.72;5081047;28;19928;-91
2022/02/24 04:11:11;;;;;;;;;;;;;;;3.30;61.51;98177.81;5080151;28;20266;-91
2022/02/24 04:13:39;;;;;;;;;;;;;;;3.17;62.03;98167.50;5082725;28;19928;-88
2022/02/24 04:16:07;;;;;;;;;;;;;;;3.40;61.01;98171.66;5081934;28;20021;-89
2022/02/24 04:18:35;;;;;;;;;;;;;;;3.15;61.86;98173.13;5079706;28;19924;-91
2022/02/24 04:21:05;;;;;;;;;;;;;;;3.11;62.22;98172.00;5081144;28;19921;-91
2022/02/24 04:23:33;;;;;;;;;;;;;;;3.13;62.58;98172.56;5078190;28;19921;-91
2022/02/24 04:26:01;;;;;;;;;;;;;;;3.60;60.68;98171.00;5080458;28;19920;-91
2022/02/24 04:28:32;;;;;;;;;;;;;;;3.51;61.08;98169.88;5081525;28;19969;-91
2022/02/24 04:31:00;;;;;;;;;;;;;;;3.37;61.92;98166.84;5079737;28;19993;-91
2022/02/24 04:33:31;;;;;;;;;;;;;;;3.43;61.80;98163.13;5081577;28;19965;-92
2022/02/24 04:35:59;;;;;;;;;;;;;;;3.50;61.35;98171.75;5080040;28;20807;-90
2022/02/24 04:38:27;;;;;;;;;;;;;;;3.52;61.49;98169.63;5077678;28;19920;-91
2022/02/24 04:40:55;;;;;;;;;;;;;;;3.37;61.71;98161.47;5079039;28;19923;-90
2022/02/24 04:43:23;;;;;;;;;;;;;;;3.36;62.02;98160.66;5081196;28;19927;-90
2022/02/24 04:45:52;;;;;;;;;;;;;;;3.48;61.78;98160.47;5081839;28;20023;-90
2022/02/24 04:48:21;;;;;;;;;;;;;;;3.50;61.70;98163.69;5081524;28;19934;-88
2022/02/24 04:50:52;;;;;;;;;;;;;;;3.53;61.48;98171.25;5080935;28;19920;-91
2022/02/24 04:53:20;;;;;;;;;;;;;;;3.67;60.63;98164.34;5082920;28;19920;-87
2022/02/24 04:55:49;;;;;;;;;;;;;;;3.73;60.77;98159.81;5079229;28;20374;-91
2022/02/24 04:58:17;;;;;;;;;;;;;;;3.79;60.53;98161.44;5084513;28;20018;-91
2022/02/24 05:00:45;;;;;;;;;;;;;;;3.82;59.86;98157.41;5078258;28;19946;-90
2022/02/24 05:03:14;;;;;;;;;;;;;;;3.81;60.52;98153.13;5086267;28;20373;-91
2022/02/24 05:05:46;;;;;;;;;;;;;;;3.83;59.85;98159.03;5087033;28;19928;-91
2022/02/24 05:08:15;;;;;;;;;;;;;;;3.76;60.26;98153.09;5081341;28;20279;-91
2022/02/24 05:10:43;;;;;;;;;;;;;;;3.66;60.55;98143.91;5077987;28;19928;-91
2022/02/24 05:13:11;;;;;;;;;;;;;;;3.67;61.05;98147.38;5095084;28;19920;-90
2022/02/24 05:15:41;;;;;;;;;;;;;;;3.54;61.30;98139.81;5086328;28;19964;-90
2022/02/24 05:18:34;;;;;;;;;;;;;;;3.66;60.93;98143.91;5083986;28;19926;-91
2022/02/24 05:21:07;;;;;;;;;;;;;;;3.61;61.14;98137.69;5085242;28;19920;-93
2022/02/24 05:23:36;;;;;;;;;;;;;;;3.54;61.28;98140.63;5078979;28;19926;-89
2022/02/24 05:26:06;;;;;;;;;;;;;;;3.49;61.50;98134.41;5083326;28;22905;-89
2022/02/24 05:28:34;;;;;;;;;;;;;;;3.68;60.88;98135.59;5077726;28;19959;-88
2022/02/24 05:31:02;;;;;;;;;;;;;;;3.71;60.89;98129.69;5081966;28;19959;-88
2022/02/24 05:33:31;;;;;;;;;;;;;;;3.68;61.11;98133.72;5085688;28;19964;-92
2022/02/24 05:36:04;;;;;;;;;;;;;;;3.71;61.09;98124.31;5087256;28;19924;-91
2022/02/24 05:38:35;;;;;;;;;;;;;;;3.68;61.54;98122.97;5085389;28;19931;-92
2022/02/24 05:41:05;;;;;;;;;;;;;;;3.59;61.84;98121.03;5084826;28;19931;-91
2022/02/24 05:43:35;;;;;;;;;;;;;;;3.60;61.77;98122.66;5085698;28;19939;-93
2022/02/24 05:46:06;;;;;;;;;;;;;;;3.57;61.75;98124.00;5086895;28;19932;-94
2022/02/24 05:48:34;;;;;;;;;;;;;;;3.64;62.05;98124.56;5083555;28;19925;-87
2022/02/24 05:51:05;;;;;;;;;;;;;;;3.63;62.23;98122.94;5086968;28;19953;-92
2022/02/24 05:53:34;;;;;;;;;;;;;;;3.66;62.09;98117.03;5085501;28;19928;-93
2022/02/24 05:56:07;;;;;;;;;;;;;;;3.70;61.98;98119.22;5092266;28;19930;-92
2022/02/24 05:58:35;;;;;;;;;;;;;;;3.58;62.39;98128.28;5087877;28;19924;-93
2022/02/24 06:01:05;;;;;;;;;;;;;;;3.82;61.28;98114.41;5085615;28;20087;-90
2022/02/24 06:03:36;;;;;;;;;;;;;;;3.85;61.24;98108.53;5087337;28;19936;-91
2022/02/24 06:06:08;;;;;;;;;;;;;;;3.66;62.20;98119.72;5086347;28;19932;-91
2022/02/24 06:08:38;;;;;;;;;;;;;;;3.93;60.94;98124.13;5088691;28;19928;-91
2022/02/24 06:11:08;;;;;;;;;;;;;;;3.93;61.18;98113.38;5088755;28;19993;-92
2022/02/24 06:13:42;;;;;;;;;;;;;;;4.13;60.27;98110.78;5087207;28;19932;-89
2022/02/24 06:16:11;;;;;;;;;;;;;;;4.10;60.35;98115.84;5083349;28;20425;-91
2022/02/24 06:18:39;;;;;;;;;;;;;;;3.94;61.09;98107.78;5065227;28;20705;-79
2022/02/24 06:21:07;;;;;;;;;;;;;;;4.06;60.58;98112.91;5066417;28;20367;-81
2022/02/24 06:23:35;;;;;;;;;;;;;;;3.89;61.51;98113.13;5081830;28;19924;-88
2022/02/24 06:26:10;;;;;;;;;;;;;;;4.05;60.80;98103.22;5085321;28;19943;-92
2022/02/24 06:28:38;;;;;;;;;;;;;;;4.10;60.55;98111.31;5099644;28;19928;-92
2022/02/24 06:31:07;;;;;;;;;;;;;;;4.00;61.29;98099.72;5101332;28;19978;-94
2022/02/24 06:33:35;;;;;;;;;;;;;;;4.10;60.82;98095.19;5099588;28;19932;-93
2022/02/24 06:36:05;;;;;;;;;;;;;;;4.18;60.69;98097.34;5107149;28;19976;-92
2022/02/24 06:38:33;;;;;;;;;;;;;;;4.30;60.19;98091.72;5104597;28;20303;-93
2022/02/24 06:41:07;;;;;;;;;;;;;;;4.10;61.02;98084.44;5110720;28;19966;-95
2022/02/24 06:43:36;;;;;;;;;;;;;;;4.14;61.20;98084.69;5099740;28;19955;-91
2022/02/24 06:46:08;;;;;;;;;;;;;;;4.18;60.66;98080.41;5093017;28;19931;-92
2022/02/24 06:48:38;;;;;;;;;;;;;;;4.32;59.81;98070.75;5097743;28;19934;-91
2022/02/24 06:51:06;;;;;;;;;;;;;;;4.33;60.18;98071.56;5104648;28;19924;-94
2022/02/24 06:56:31;;;;;;;;;;;;;;;4.28;60.44;98068.88;5013418;28;19908;-88
2022/02/24 06:59:20;;;;;;;;;;;;;;;4.38;60.39;98080.44;4975987;28;20020;-93
2022/02/24 07:01:50;;;;;;;;;;;;;;;4.18;60.92;98081.22;4981305;28;19927;-92
2022/02/24 07:04:19;;;;;;;;;;;;;;;4.47;60.22;98067.25;4976715;28;19926;-94
2022/02/24 07:06:47;;;;;;;;;;;;;;;4.43;60.34;98085.03;4990505;28;19985;-91
2022/02/24 07:09:15;;;;;;;;;;;;;;;4.22;61.78;98078.81;4984980;28;19968;-93
2022/02/24 07:11:43;;;;;;;;;;;;;;;4.41;60.80;98069.13;4988454;28;19941;-94
2022/02/24 07:14:11;;;;;;;;;;;;;;;4.65;60.16;98065.94;4996506;28;19984;-93
2022/02/24 07:16:40;;;;;;;;;;;;;;;4.76;59.23;98064.06;4986111;28;19926;-93
2022/02/24 07:19:10;;;;;;;;;;;;;;;4.52;60.92;98074.53;4971575;28;19934;-94
2022/02/24 07:21:42;;;;;;;;;;;;;;;4.61;60.83;98062.97;4978516;28;19980;-94
2022/02/24 07:24:13;;;;;;;;;;;;;;;4.95;59.43;98057.03;4994264;28;19926;-94
2022/02/24 07:26:41;;;;;;;;;;;;;;;4.92;59.81;98052.19;4971645;28;19933;-94
2022/02/24 07:29:10;;;;;;;;;;;;;;;5.03;59.18;98048.41;4975445;28;19927;-95
2022/02/24 07:31:38;;;;;;;;;;;;;;;5.10;58.61;98050.81;4991116;28;19927;-93
2022/02/24 07:34:07;;;;;;;;;;;;;;;5.05;58.90;98045.44;4988028;28;19926;-92
2022/02/24 07:36:37;;;;;;;;;;;;;;;5.16;59.12;98039.75;4994450;28;19987;-91
2022/02/24 07:39:23;;;;;;;;;;;;;;;5.25;58.45;98038.13;4982559;28;19934;-92
2022/02/24 07:41:51;;;;;;;;;;;;;;;5.37;58.08;98021.66;4993964;28;20419;-92
2022/02/24 07:44:20;;;;;;;;;;;;;;;5.49;57.92;98024.06;4988015;28;19994;-93
2022/02/24 07:46:48;;;;;;;;;;;;;;;5.67;57.98;98020.75;4976323;28;19935;-95
2022/02/24 07:49:17;;;;;;;;;;;;;;;5.55;58.34;98027.53;4986936;28;20367;-95
2022/02/24 07:51:48;;;;;;;;;;;;;;;5.45;58.92;98025.69;4993927;28;20009;-94
2022/02/24 07:54:34;;;;;;;;;;;;;;;5.43;59.11;98020.59;4984482;28;19926;-95
2022/02/24 07:57:02;;;;;;;;;;;;;;;5.48;58.87;98023.22;4979550;28;19930;-94
2022/02/24 07:59:30;;;;;;;;;;;;;;;5.53;58.73;98020.53;4987679;28;19933;-89
2022/02/24 08:02:03;;;;;;;;;;;;;;;5.56;59.02;98021.88;4983681;28;19934;-94
2022/02/24 08:04:32;;;;;;;;;;;;;;;5.83;57.86;98031.47;4985073;28;19949;-92
2022/02/24 08:07:01;;;;;;;;;;;;;;;5.67;58.09;98033.41;4980369;28;19930;-93
2022/02/24 08:09:30;;;;;;;;;;;;;;;5.87;57.59;98029.81;4985752;28;19930;-91
2022/02/24 08:14:43;;;;;;;;;;;;;;;6.14;57.43;98024.84;4975634;28;19938;-93
2022/02/24 08:17:12;;;;;;;;;;;;;;;6.24;57.48;98024.78;4961700;28;19972;-92
2022/02/24 08:20:07;;;;;;;;;;;;;;;6.33;57.29;98014.19;4988862;28;19927;-95
2022/02/24 08:22:37;;;;;;;;;;;;;;;6.58;56.30;98007.78;4969824;28;19932;-91
2022/02/24 08:25:06;;;;;;;;;;;;;;;6.49;56.33;98014.88;4974032;28;19934;-95
2022/02/24 08:27:35;;;;;;;;;;;;;;;6.54;56.94;98012.13;4977976;28;19926;-94
2022/02/24 08:30:03;;;;;;;;;;;;;;;6.65;56.48;98013.66;4971248;28;19926;-91
2022/02/24 08:32:31;;;;;;;;;;;;;;;6.64;56.57;98012.06;4982523;28;19926;-95
2022/02/24 08:38:05;;;;;;;;;;;;;;;6.68;55.90;98005.00;4982658;28;19955;-93
2022/02/24 08:40:33;;;;;;;;;;;;;;;6.76;56.64;98006.28;4976540;28;19952;-92
2022/02/24 08:47:33;;;;;;;;;;;;;;;6.78;56.83;97991.41;4979254;28;19928;-94
2022/02/24 08:50:02;;;;;;;;;;;;;;;7.14;55.59;97982.97;4983074;28;19926;-90
2022/02/24 08:52:50;;;;;;;;;;;;;;;7.14;55.78;97982.97;4988894;28;19980;-90
2022/02/24 08:55:20;;;;;;;;;;;;;;;7.24;55.80;97982.00;4991086;28;19957;-93
2022/02/24 08:57:47;;;;;;;;;;;;;;;7.55;54.50;97983.25;4978983;28;19926;-95
2022/02/24 09:00:16;;;;;;;;;;;;;;;7.45;54.90;97977.19;4981141;28;19935;-94
2022/02/24 09:02:44;;;;;;;;;;;;;;;7.34;55.44;97974.59;4980281;28;19937;-94
2022/02/24 09:05:12;;;;;;;;;;;;;;;7.51;54.58;97976.84;4976649;28;20379;-95
2022/02/24 09:07:40;;;;;;;;;;;;;;;7.60;54.90;97964.28;4979349;28;20011;-90
2022/02/24 09:10:28;;;;;;;;;;;;;;;7.77;54.41;97968.38;4978530;28;20585;-94
2022/02/24 09:12:56;;;;;;;;;;;;;;;7.80;54.13;97974.03;4983988;28;19949;-94
2022/02/24 09:18:16;;;;;;;;;;;;;;;7.92;54.03;97959.25;4996835;28;19930;-95
2022/02/24 09:20:44;;;;;;;;;;;;;;;8.10;53.78;97950.34;4965019;28;19934;-93
2022/02/24 09:23:12;;;;;;;;;;;;;;;8.14;53.20;97951.34;4965985;28;19930;-93
2022/02/24 09:25:41;;;;;;;;;;;;;;;8.16;54.02;97954.56;4973830;28;19934;-94
2022/02/24 09:28:09;;;;;;;;;;;;;;;8.23;53.14;97943.38;4972871;28;19977;-94
2022/02/24 09:30:39;;;;;;;;;;;;;;;8.26;53.22;97940.88;4974499;28;20384;-96
2022/02/24 09:33:06;;;;;;;;;;;;;;;8.10;53.81;97934.09;4974950;28;19961;-94
2022/02/24 09:35:34;;;;;;;;;;;;;;;8.45;53.41;97940.06;4968779;28;19934;-94
2022/02/24 09:38:02;;;;;;;;;;;;;;;8.53;53.41;97937.50;4970217;28;20385;-92
2022/02/24 09:40:31;;;;;;;;;;;;;;;8.63;53.46;97933.81;4965796;28;20389;-92
2022/02/24 09:43:16;;;;;;;;;;;;;;;8.85;52.65;97928.53;4964336;28;20450;-90
2022/02/24 09:45:44;;;;;;;;;;;;;;;8.98;51.90;97926.13;4966331;28;19955;-91
2022/02/24 09:48:14;;;;;;;;;;;;;;;9.00;52.10;97918.47;4962672;28;19927;-92
2022/02/24 09:50:44;;;;;;;;;;;;;;;9.19;51.25;97916.47;4977198;28;20466;-93
2022/02/24 09:53:12;;;;;;;;;;;;;;;9.34;51.50;97909.94;4980961;28;20450;-93
2022/02/24 09:55:41;;;;;;;;;;;;;;;9.41;51.58;97913.84;4977619;28;19926;-92
2022/02/24 09:58:09;;;;;;;;;;;;;;;9.54;50.91;97914.94;4970215;28;19927;-91
2022/02/24 10:00:38;;;;;;;;;;;;;;;9.40;51.83;97914.97;4971031;28;19960;-93
2022/02/24 10:03:21;;;;;;;;;;;;;;;9.45;52.16;97905.91;4967086;28;20434;-90
2022/02/24 10:05:49;;;;;;;;;;;;;;;9.39;51.45;97894.38;4973705;28;20292;-92
2022/02/24 10:08:17;;;;;;;;;;;;;;;9.47;51.71;97892.84;4970043;28;20350;-92
2022/02/24 10:10:47;;;;;;;;;;;;;;;9.39;51.97;97894.38;4966145;28;19934;-93
2022/02/24 10:13:15;;;;;;;;;;;;;;;9.80;51.41;97890.78;4982180;28;19953;-93
2022/02/24 10:15:45;;;;;;;;;;;;;;;9.86;51.71;97881.41;4972613;28;20392;-91
2022/02/24 10:18:18;;;;;;;;;;;;;;;10.06;50.50;97880.09;4972198;28;19956;-92
2022/02/24 10:20:47;;;;;;;;;;;;;;;10.16;50.91;97873.63;4976474;28;19934;-92
2022/02/24 10:23:15;;;;;;;;;;;;;;;10.16;50.25;97873.63;4976083;28;19959;-92
2022/02/24 10:25:44;;;;;;;;;;;;;;;10.06;50.84;97868.44;4971854;28;19934;-92
2022/02/24 10:28:35;;;;;;;;;;;;;;;10.18;50.88;97871.41;4978181;28;20001;-93
2022/02/24 10:31:11;;;;;;;;;;;;;;;10.40;50.57;97866.00;4968310;28;19957;-92
2022/02/24 10:33:40;;;;;;;;;;;;;;;10.52;50.34;97856.47;4967529;28;20017;-91
2022/02/24 10:36:09;;;;;;;;;;;;;;;10.37;50.18;97853.03;4978867;28;19927;-94
2022/02/24 10:38:37;;;;;;;;;;;;;;;10.52;49.71;97845.59;4968109;28;19925;-91
2022/02/24 10:41:07;;;;;;;;;;;;;;;10.54;50.31;97846.06;4971381;28;19979;-93
2022/02/24 10:43:36;;;;;;;;;;;;;;;10.70;49.54;97839.13;4976034;28;19926;-93
2022/02/24 10:46:07;;;;;;;;;;;;;;;10.81;49.27;97832.28;4973977;28;19977;-93
2022/02/24 10:48:50;;;;;;;;;;;;;;;10.85;49.62;97824.31;4963818;28;19930;-93
2022/02/24 10:51:21;;;;;;;;;;;;;;;11.08;49.08;97822.28;4970104;28;19927;-92
2022/02/24 10:53:58;;;;;;;;;;;;;;;10.98;49.33;97820.69;4972279;28;19926;-92
2022/02/24 10:56:27;;;;;;;;;;;;;;;11.17;49.03;97817.69;4968106;28;19932;-93
2022/02/24 10:58:55;;;;;;;;;;;;;;;11.13;49.00;97808.56;4995008;28;20009;-91
2022/02/24 11:01:24;;;;;;;;;;;;;;;11.20;49.02;97804.25;4980662;28;19982;-93
2022/02/24 11:03:53;;;;;;;;;;;;;;;11.12;49.07;97798.78;4967644;28;19938;-93
2022/02/24 11:06:22;;;;;;;;;;;;;;;11.10;49.15;97798.31;4979155;28;19926;-91
2022/02/24 11:08:50;;;;;;;;;;;;;;;11.04;49.54;97788.72;4972449;28;19991;-92
2022/02/24 11:11:19;;;;;;;;;;;;;;;11.01;49.54;97790.13;4972241;28;19969;-93
2022/02/24 11:13:47;;;;;;;;;;;;;;;10.92;49.88;97776.56;4973634;28;19945;-92
2022/02/24 11:16:15;;;;;;;;;;;;;;;11.04;50.19;97780.56;4972172;28;19957;-92
2022/02/24 11:18:43;;;;;;;;;;;;;;;11.03;49.58;97774.34;4968356;28;19927;-92
2022/02/24 11:21:13;;;;;;;;;;;;;;;11.02;50.29;97773.53;4968617;28;19926;-91
2022/02/24 11:23:41;;;;;;;;;;;;;;;11.31;49.38;97766.69;4970447;28;20312;-93
2022/02/24 11:26:10;;;;;;;;;;;;;;;11.52;48.90;97767.63;4970179;28;19973;-91
2022/02/24 11:28:40;;;;;;;;;;;;;;;11.67;48.63;97751.94;4972124;28;19930;-92
2022/02/24 11:31:11;;;;;;;;;;;;;;;11.73;48.44;97745.22;4969429;28;20013;-92
2022/02/24 11:33:39;;;;;;;;;;;;;;;11.88;47.94;97735.75;4978676;28;19926;-93
2022/02/24 11:36:07;;;;;;;;;;;;;;;11.89;48.38;97734.66;4971908;28;19931;-90
2022/02/24 11:38:36;;;;;;;;;;;;;;;12.09;47.86;97730.41;4967722;28;19934;-91
2022/02/24 11:41:08;;;;;;;;;;;;;;;12.16;47.67;97725.28;4971758;28;20431;-90
2022/02/24 11:43:37;;;;;;;;;;;;;;;12.27;47.56;97726.53;4970077;28;20319;-92
2022/02/24 11:46:07;;;;;;;;;;;;;;;12.04;48.06;97712.34;4971749;28;19949;-91
2022/02/24 11:48:37;;;;;;;;;;;;;;;12.18;47.97;97720.28;4979951;28;19933;-93
2022/02/24 11:51:06;;;;;;;;;;;;;;;12.19;47.92;97711.00;4967335;28;19930;-92
2022/02/24 11:53:35;;;;;;;;;;;;;;;11.95;48.06;97701.47;4967152;28;19935;-93
2022/02/24 11:56:09;;;;;;;;;;;;;;;12.06;47.98;97694.56;4971634;28;19926;-93
2022/02/24 11:58:38;;;;;;;;;;;;;;;12.16;48.38;97687.94;4967723;28;19937;-90
2022/02/24 12:01:11;;;;;;;;;;;;;;;12.45;47.96;97689.88;4981399;28;19939;-87
2022/02/24 12:03:52;;;;;;;;;;;;;;;12.54;47.73;97677.03;4991977;28;19926;-91
2022/02/24 12:06:20;;;;;;;;;;;;;;;12.78;47.31;97687.31;4977205;28;19966;-92
2022/02/24 12:09:06;;;;;;;;;;;;;;;12.58;47.16;97682.63;4971921;28;20013;-90
2022/02/24 12:11:40;;;;;;;;;;;;;;;12.74;46.51;97674.66;4969585;28;19941;-91
2022/02/24 12:14:08;;;;;;;;;;;;;;;12.76;47.05;97672.41;4973291;28;19941;-89
2022/02/24 12:16:36;;;;;;;;;;;;;;;12.88;46.55;97663.50;4977212;28;20021;-91
2022/02/24 12:19:06;;;;;;;;;;;;;;;12.91;46.29;97655.44;4969303;28;19997;-91
2022/02/24 12:21:36;;;;;;;;;;;;;;;12.70;46.38;97660.88;4968668;28;19926;-91
2022/02/24 12:24:05;;;;;;;;;;;;;;;12.76;46.92;97648.66;4972994;28;20017;-92
2022/02/24 12:26:37;;;;;;;;;;;;;;;12.82;47.33;97635.63;4967951;28;19939;-91
2022/02/24 12:29:26;;;;;;;;;;;;;;;12.93;46.24;97634.09;4968800;28;20384;-92
2022/02/24 12:31:56;;;;;;;;;;;;;;;12.95;46.49;97623.66;4964162;28;19926;-91
2022/02/24 12:34:24;;;;;;;;;;;;;;;12.94;46.00;97622.06;4963164;28;19958;-91
2022/02/24 12:36:52;;;;;;;;;;;;;;;12.89;46.35;97616.00;4974761;28;19961;-90
2022/02/24 12:39:20;;;;;;;;;;;;;;;12.79;46.32;97614.50;4978832;28;19926;-92
2022/02/24 12:41:47;;;;;;;;;;;;;;;12.89;46.34;97611.38;4971987;28;19926;-92
2022/02/24 12:44:23;;;;;;;;;;;;;;;13.00;45.91;97607.09;4979519;28;19930;-91
2022/02/24 12:46:52;;;;;;;;;;;;;;;12.50;47.12;97598.97;4966413;28;19926;-91
2022/02/24 12:49:20;;;;;;;;;;;;;;;12.57;46.80;97589.16;4966190;28;20335;-89
2022/02/24 12:51:48;;;;;;;;;;;;;;;12.14;47.73;97599.53;4964615;28;19926;-90
2022/02/24 12:54:16;;;;;;;;;;;;;;;12.07;48.44;97589.94;4970898;28;19926;-91
2022/02/24 12:56:48;;;;;;;;;;;;;;;12.29;47.17;97588.06;4970101;28;19934;-92
2022/02/24 12:59:17;;;;;;;;;;;;;;;12.56;47.02;97578.59;4972810;28;19930;-92
2022/02/24 13:01:52;;;;;;;;;;;;;;;12.57;46.76;97570.09;4968039;28;19930;-92
2022/02/24 13:04:21;;;;;;;;;;;;;;;12.75;46.55;97578.13;4988460;28;19934;-86
2022/02/24 13:06:50;;;;;;;;;;;;;;;12.85;46.41;97567.63;4983906;28;19926;-90
2022/02/24 13:12:05;;;;;;;;;;;;;;;12.98;45.89;97560.28;4979688;28;19930;-90
2022/02/24 13:14:34;;;;;;;;;;;;;;;12.94;45.76;97545.69;4969675;28;19936;-91
2022/02/24 13:17:08;;;;;;;;;;;;;;;13.03;45.47;97545.63;4972215;28;19930;-89
2022/02/24 13:19:38;;;;;;;;;;;;;;;12.98;45.92;97538.44;4975442;28;19934;-91
2022/02/24 13:22:07;;;;;;;;;;;;;;;12.90;45.88;97527.66;4975662;28;20398;-91
2022/02/24 13:24:36;;;;;;;;;;;;;;;13.12;45.64;97532.72;4964746;28;20025;-91
2022/02/24 13:27:04;;;;;;;;;;;;;;;12.84;46.11;97530.59;4970051;28;19944;-90
2022/02/24 13:29:39;;;;;;;;;;;;;;;12.77;46.33;97511.22;4968364;28;19926;-92
2022/02/24 13:32:12;;;;;;;;;;;;;;;12.84;46.22;97508.78;4971384;28;19953;-92
2022/02/24 13:34:40;;;;;;;;;;;;;;;13.09;45.49;97512.34;4984421;28;20381;-89
2022/02/24 13:37:08;;;;;;;;;;;;;;;12.94;46.34;97504.00;4972073;28;19942;-92